Main page
METAR-TAF:

METAR-TAF

Airports :

Guaratinguetá, São Paulo, Brazil

latitude: 22-47S, longitude: 045-12W, elevation: 537 m

Current weather observation

The report was made 29 minutes ago, at 14:00 UTC
Wind 7 kt from the East
Temperature 32°C
Humidity 49%
Pressure 1012 hPa
Visibility 10 km or more
Scattered clouds at a height of 3500 ft

METAR: SBGW 141400Z 08007KT 9999 SCT035 32/20 Q1012

Time: 12:29 (14:29 UTC)

Forecast

The report was made 5 hours and 59 minutes ago, at 08:30 UTC
Forecast valid from 14 at 12 UTC to 14 at 24 UTC
Wind 7 kt from the East/Northeast
Visibility 10 km or more
no clouds below 1500 m and no cumulonimbus
Becoming
from 14 at 12 UTC to 14 at 14 UTC
Wind 8 kt from the Northwest
Visibility 10 km or more
Few clouds at a height of 3000 ft

TAF: SBGW 140830Z 1412/1424 06007KT CAVOK TX36/1418Z TN23/1424Z BECMG 1412/1414 32008KT 9999 FEW030 RMK PDJ

Weather observations and forecasts of more than 4000 airports (METAR and TAF reports).

The available stations are represented by yellow and red dots on the map.

Hover mouse over dot to see the name of the station.

Then click to see weather observations and forecasts.

To change the map : click on the green buttons with a black cross to zoom in, on the green button with a dash to zoom out, or on the green arrows for adjacent maps.


METAR-TAF: